sensor_id;sensor_type;location;lat;lon;timestamp;P1;durP1;ratioP1;P2;durP2;ratioP2
12059;SDS011;6091;51.432;6.880;2023-11-21T00:00:05;1.58;;;1.40;;
12059;SDS011;6091;51.432;6.880;2023-11-21T00:02:38;1.70;;;1.60;;
12059;SDS011;6091;51.432;6.880;2023-11-21T00:05:08;1.90;;;1.80;;
12059;SDS011;6091;51.432;6.880;2023-11-21T00:07:37;2.53;;;1.70;;
12059;SDS011;6091;51.432;6.880;2023-11-21T00:10:05;2.65;;;1.90;;
12059;SDS011;6091;51.432;6.880;2023-11-21T00:12:37;1.73;;;1.63;;
12059;SDS011;6091;51.432;6.880;2023-11-21T00:15:04;1.70;;;1.60;;
12059;SDS011;6091;51.432;6.880;2023-11-21T00:17:36;2.20;;;2.00;;
12059;SDS011;6091;51.432;6.880;2023-11-21T00:20:09;1.83;;;1.73;;
12059;SDS011;6091;51.432;6.880;2023-11-21T00:22:39;2.00;;;1.80;;
12059;SDS011;6091;51.432;6.880;2023-11-21T00:25:07;1.88;;;1.70;;
12059;SDS011;6091;51.432;6.880;2023-11-21T00:27:35;1.90;;;1.80;;
12059;SDS011;6091;51.432;6.880;2023-11-21T00:30:03;1.60;;;1.50;;
12059;SDS011;6091;51.432;6.880;2023-11-21T00:32:31;1.75;;;1.60;;
12059;SDS011;6091;51.432;6.880;2023-11-21T00:34:59;1.70;;;1.60;;
12059;SDS011;6091;51.432;6.880;2023-11-21T00:37:26;1.90;;;1.80;;
12059;SDS011;6091;51.432;6.880;2023-11-21T00:39:53;2.25;;;2.05;;
12059;SDS011;6091;51.432;6.880;2023-11-21T00:42:20;2.00;;;1.80;;
12059;SDS011;6091;51.432;6.880;2023-11-21T00:44:48;1.70;;;1.60;;
12059;SDS011;6091;51.432;6.880;2023-11-21T00:47:15;2.38;;;1.80;;
12059;SDS011;6091;51.432;6.880;2023-11-21T00:49:42;2.00;;;1.80;;
12059;SDS011;6091;51.432;6.880;2023-11-21T00:52:10;2.00;;;1.80;;
12059;SDS011;6091;51.432;6.880;2023-11-21T00:54:37;2.20;;;2.00;;
12059;SDS011;6091;51.432;6.880;2023-11-21T00:57:04;2.15;;;1.95;;
12059;SDS011;6091;51.432;6.880;2023-11-21T00:59:31;2.30;;;2.10;;
12059;SDS011;6091;51.432;6.880;2023-11-21T01:01:58;2.08;;;1.88;;
12059;SDS011;6091;51.432;6.880;2023-11-21T01:04:27;2.33;;;2.13;;
12059;SDS011;6091;51.432;6.880;2023-11-21T01:06:58;1.92;;;1.80;;
12059;SDS011;6091;51.432;6.880;2023-11-21T01:09:25;2.30;;;2.10;;
12059;SDS011;6091;51.432;6.880;2023-11-21T01:11:54;1.88;;;1.77;;
12059;SDS011;6091;51.432;6.880;2023-11-21T01:14:21;2.22;;;1.95;;
12059;SDS011;6091;51.432;6.880;2023-11-21T01:16:48;2.65;;;2.08;;
12059;SDS011;6091;51.432;6.880;2023-11-21T01:19:15;1.85;;;1.70;;
12059;SDS011;6091;51.432;6.880;2023-11-21T01:21:43;1.95;;;1.85;;
12059;SDS011;6091;51.432;6.880;2023-11-21T01:24:10;1.90;;;1.77;;
12059;SDS011;6091;51.432;6.880;2023-11-21T01:26:37;1.83;;;1.67;;
12059;SDS011;6091;51.432;6.880;2023-11-21T01:29:04;2.10;;;1.90;;
12059;SDS011;6091;51.432;6.880;2023-11-21T01:31:31;2.00;;;1.88;;
12059;SDS011;6091;51.432;6.880;2023-11-21T01:33:58;1.88;;;1.77;;
12059;SDS011;6091;51.432;6.880;2023-11-21T01:36:32;1.77;;;1.67;;
12059;SDS011;6091;51.432;6.880;2023-11-21T01:39:00;1.88;;;1.77;;
12059;SDS011;6091;51.432;6.880;2023-11-21T01:41:27;1.90;;;1.70;;
12059;SDS011;6091;51.432;6.880;2023-11-21T01:43:57;1.73;;;1.63;;
12059;SDS011;6091;51.432;6.880;2023-11-21T01:46:24;1.80;;;1.70;;
12059;SDS011;6091;51.432;6.880;2023-11-21T01:48:51;1.50;;;1.40;;
12059;SDS011;6091;51.432;6.880;2023-11-21T01:51:20;1.67;;;1.58;;
12059;SDS011;6091;51.432;6.880;2023-11-21T01:53:47;1.70;;;1.60;;
12059;SDS011;6091;51.432;6.880;2023-11-21T01:56:14;1.58;;;1.48;;
12059;SDS011;6091;51.432;6.880;2023-11-21T01:58:42;1.75;;;1.50;;
12059;SDS011;6091;51.432;6.880;2023-11-21T02:01:13;1.60;;;1.50;;
12059;SDS011;6091;51.432;6.880;2023-11-21T02:03:41;1.60;;;1.50;;
12059;SDS011;6091;51.432;6.880;2023-11-21T02:06:08;2.40;;;1.95;;
12059;SDS011;6091;51.432;6.880;2023-11-21T02:08:35;1.88;;;1.73;;
12059;SDS011;6091;51.432;6.880;2023-11-21T02:11:04;1.60;;;1.50;;
12059;SDS011;6091;51.432;6.880;2023-11-21T02:13:33;1.80;;;1.70;;
12059;SDS011;6091;51.432;6.880;2023-11-21T02:16:01;1.92;;;1.83;;
12059;SDS011;6091;51.432;6.880;2023-11-21T02:18:28;1.77;;;1.60;;
12059;SDS011;6091;51.432;6.880;2023-11-21T02:20:56;1.70;;;1.60;;
12059;SDS011;6091;51.432;6.880;2023-11-21T02:23:23;1.55;;;1.45;;
12059;SDS011;6091;51.432;6.880;2023-11-21T02:25:55;1.55;;;1.45;;
12059;SDS011;6091;51.432;6.880;2023-11-21T02:28:22;1.80;;;1.70;;
12059;SDS011;6091;51.432;6.880;2023-11-21T02:30:52;1.42;;;1.33;;
12059;SDS011;6091;51.432;6.880;2023-11-21T02:33:22;1.70;;;1.60;;
12059;SDS011;6091;51.432;6.880;2023-11-21T02:35:49;1.70;;;1.60;;
12059;SDS011;6091;51.432;6.880;2023-11-21T02:38:21;1.70;;;1.60;;
12059;SDS011;6091;51.432;6.880;2023-11-21T02:40:48;1.60;;;1.50;;
12059;SDS011;6091;51.432;6.880;2023-11-21T02:43:16;1.70;;;1.60;;
12059;SDS011;6091;51.432;6.880;2023-11-21T02:45:43;1.65;;;1.55;;
12059;SDS011;6091;51.432;6.880;2023-11-21T02:48:10;1.70;;;1.60;;
12059;SDS011;6091;51.432;6.880;2023-11-21T02:50:37;1.35;;;1.25;;
12059;SDS011;6091;51.432;6.880;2023-11-21T02:53:04;1.95;;;1.85;;
12059;SDS011;6091;51.432;6.880;2023-11-21T02:55:34;1.60;;;1.50;;
12059;SDS011;6091;51.432;6.880;2023-11-21T02:58:02;1.15;;;1.15;;
12059;SDS011;6091;51.432;6.880;2023-11-21T03:00:32;1.40;;;1.30;;
12059;SDS011;6091;51.432;6.880;2023-11-21T03:02:59;1.58;;;1.48;;
12059;SDS011;6091;51.432;6.880;2023-11-21T03:05:27;1.60;;;1.50;;
12059;SDS011;6091;51.432;6.880;2023-11-21T03:07:55;1.80;;;1.55;;
12059;SDS011;6091;51.432;6.880;2023-11-21T03:10:22;1.60;;;1.50;;
12059;SDS011;6091;51.432;6.880;2023-11-21T03:12:50;1.90;;;1.80;;
12059;SDS011;6091;51.432;6.880;2023-11-21T03:15:17;1.50;;;1.40;;
12059;SDS011;6091;51.432;6.880;2023-11-21T03:17:45;1.38;;;1.27;;
12059;SDS011;6091;51.432;6.880;2023-11-21T03:20:12;1.42;;;1.30;;
12059;SDS011;6091;51.432;6.880;2023-11-21T03:22:40;1.60;;;1.50;;
12059;SDS011;6091;51.432;6.880;2023-11-21T03:25:08;1.77;;;1.67;;
12059;SDS011;6091;51.432;6.880;2023-11-21T03:27:38;1.63;;;1.52;;
12059;SDS011;6091;51.432;6.880;2023-11-21T03:30:07;1.48;;;1.38;;
12059;SDS011;6091;51.432;6.880;2023-11-21T03:32:35;1.25;;;1.15;;
12059;SDS011;6091;51.432;6.880;2023-11-21T03:35:03;1.50;;;1.40;;
12059;SDS011;6091;51.432;6.880;2023-11-21T03:37:32;2.20;;;1.60;;
12059;SDS011;6091;51.432;6.880;2023-11-21T03:39:59;1.65;;;1.55;;
12059;SDS011;6091;51.432;6.880;2023-11-21T03:42:27;1.40;;;1.30;;
12059;SDS011;6091;51.432;6.880;2023-11-21T03:44:54;1.92;;;1.50;;
12059;SDS011;6091;51.432;6.880;2023-11-21T03:47:22;1.50;;;1.40;;
12059;SDS011;6091;51.432;6.880;2023-11-21T03:49:49;1.35;;;1.25;;
12059;SDS011;6091;51.432;6.880;2023-11-21T03:52:16;1.67;;;1.40;;
12059;SDS011;6091;51.432;6.880;2023-11-21T03:54:43;1.30;;;1.20;;
12059;SDS011;6091;51.432;6.880;2023-11-21T03:57:12;1.65;;;1.55;;
12059;SDS011;6091;51.432;6.880;2023-11-21T03:59:42;1.52;;;1.42;;
12059;SDS011;6091;51.432;6.880;2023-11-21T04:02:10;1.27;;;1.17;;
12059;SDS011;6091;51.432;6.880;2023-11-21T04:04:37;1.30;;;1.20;;
12059;SDS011;6091;51.432;6.880;2023-11-21T04:07:09;1.60;;;1.50;;
12059;SDS011;6091;51.432;6.880;2023-11-21T04:09:37;1.55;;;1.45;;
12059;SDS011;6091;51.432;6.880;2023-11-21T04:12:04;1.75;;;1.65;;
12059;SDS011;6091;51.432;6.880;2023-11-21T04:14:32;1.52;;;1.42;;
12059;SDS011;6091;51.432;6.880;2023-11-21T04:16:59;1.50;;;1.40;;
12059;SDS011;6091;51.432;6.880;2023-11-21T04:19:26;1.52;;;1.40;;
12059;SDS011;6091;51.432;6.880;2023-11-21T04:21:53;1.40;;;1.30;;
12059;SDS011;6091;51.432;6.880;2023-11-21T04:24:20;1.30;;;1.20;;
12059;SDS011;6091;51.432;6.880;2023-11-21T04:26:48;1.40;;;1.30;;
12059;SDS011;6091;51.432;6.880;2023-11-21T04:29:15;1.40;;;1.30;;
12059;SDS011;6091;51.432;6.880;2023-11-21T04:31:42;1.30;;;1.20;;
12059;SDS011;6091;51.432;6.880;2023-11-21T04:34:09;1.52;;;1.42;;
12059;SDS011;6091;51.432;6.880;2023-11-21T04:36:37;1.40;;;1.30;;
12059;SDS011;6091;51.432;6.880;2023-11-21T04:39:06;1.58;;;1.48;;
12059;SDS011;6091;51.432;6.880;2023-11-21T04:41:33;1.65;;;1.55;;
12059;SDS011;6091;51.432;6.880;2023-11-21T04:44:00;2.15;;;1.23;;
12059;SDS011;6091;51.432;6.880;2023-11-21T04:46:28;1.25;;;1.15;;
12059;SDS011;6091;51.432;6.880;2023-11-21T04:48:55;1.52;;;1.15;;
12059;SDS011;6091;51.432;6.880;2023-11-21T04:51:22;1.42;;;1.27;;
12059;SDS011;6091;51.432;6.880;2023-11-21T04:53:49;1.23;;;1.13;;
12059;SDS011;6091;51.432;6.880;2023-11-21T04:56:16;1.40;;;1.30;;
12059;SDS011;6091;51.432;6.880;2023-11-21T04:58:43;1.30;;;1.20;;
12059;SDS011;6091;51.432;6.880;2023-11-21T05:01:10;2.28;;;1.50;;
12059;SDS011;6091;51.432;6.880;2023-11-21T05:03:38;1.50;;;1.40;;
12059;SDS011;6091;51.432;6.880;2023-11-21T05:06:05;1.30;;;1.20;;
12059;SDS011;6091;51.432;6.880;2023-11-21T05:08:33;1.75;;;1.65;;
12059;SDS011;6091;51.432;6.880;2023-11-21T05:11:00;1.42;;;1.33;;
12059;SDS011;6091;51.432;6.880;2023-11-21T05:13:27;1.30;;;1.20;;
12059;SDS011;6091;51.432;6.880;2023-11-21T05:15:54;1.20;;;1.10;;
12059;SDS011;6091;51.432;6.880;2023-11-21T05:18:25;1.33;;;1.20;;
12059;SDS011;6091;51.432;6.880;2023-11-21T05:20:56;1.17;;;1.10;;
12059;SDS011;6091;51.432;6.880;2023-11-21T05:23:24;1.58;;;1.40;;
12059;SDS011;6091;51.432;6.880;2023-11-21T05:25:51;1.40;;;1.30;;
12059;SDS011;6091;51.432;6.880;2023-11-21T05:28:18;1.27;;;1.17;;
12059;SDS011;6091;51.432;6.880;2023-11-21T05:30:45;1.25;;;1.15;;
12059;SDS011;6091;51.432;6.880;2023-11-21T05:33:12;1.20;;;1.20;;
12059;SDS011;6091;51.432;6.880;2023-11-21T05:35:39;1.60;;;1.50;;
12059;SDS011;6091;51.432;6.880;2023-11-21T05:38:06;1.23;;;1.13;;
12059;SDS011;6091;51.432;6.880;2023-11-21T05:40:33;1.45;;;1.35;;
12059;SDS011;6091;51.432;6.880;2023-11-21T05:43:01;1.40;;;1.30;;
12059;SDS011;6091;51.432;6.880;2023-11-21T05:45:28;1.40;;;1.30;;
12059;SDS011;6091;51.432;6.880;2023-11-21T05:47:57;1.15;;;1.10;;
12059;SDS011;6091;51.432;6.880;2023-11-21T05:50:25;1.52;;;1.40;;
12059;SDS011;6091;51.432;6.880;2023-11-21T05:52:52;1.60;;;1.50;;
12059;SDS011;6091;51.432;6.880;2023-11-21T05:55:19;1.40;;;1.30;;
12059;SDS011;6091;51.432;6.880;2023-11-21T05:57:52;1.10;;;1.10;;
12059;SDS011;6091;51.432;6.880;2023-11-21T06:00:20;1.40;;;1.30;;
12059;SDS011;6091;51.432;6.880;2023-11-21T06:02:53;1.60;;;1.35;;
12059;SDS011;6091;51.432;6.880;2023-11-21T06:05:22;1.20;;;1.10;;
12059;SDS011;6091;51.432;6.880;2023-11-21T06:07:53;1.70;;;1.40;;
12059;SDS011;6091;51.432;6.880;2023-11-21T06:10:26;1.20;;;1.10;;
12059;SDS011;6091;51.432;6.880;2023-11-21T06:12:55;1.33;;;1.15;;
12059;SDS011;6091;51.432;6.880;2023-11-21T06:15:22;1.40;;;1.30;;
12059;SDS011;6091;51.432;6.880;2023-11-21T06:17:50;1.20;;;1.10;;
12059;SDS011;6091;51.432;6.880;2023-11-21T06:20:21;1.17;;;1.10;;
12059;SDS011;6091;51.432;6.880;2023-11-21T06:22:49;1.20;;;1.10;;
12059;SDS011;6091;51.432;6.880;2023-11-21T06:25:18;1.23;;;1.13;;
12059;SDS011;6091;51.432;6.880;2023-11-21T06:27:47;1.20;;;1.10;;
12059;SDS011;6091;51.432;6.880;2023-11-21T06:30:15;1.20;;;1.10;;
12059;SDS011;6091;51.432;6.880;2023-11-21T06:32:43;1.27;;;1.17;;
12059;SDS011;6091;51.432;6.880;2023-11-21T06:35:14;1.40;;;1.30;;
12059;SDS011;6091;51.432;6.880;2023-11-21T06:37:43;1.30;;;1.20;;
12059;SDS011;6091;51.432;6.880;2023-11-21T06:40:16;2.55;;;1.10;;
12059;SDS011;6091;51.432;6.880;2023-11-21T06:42:49;1.42;;;1.33;;
12059;SDS011;6091;51.432;6.880;2023-11-21T06:45:17;1.27;;;1.20;;
12059;SDS011;6091;51.432;6.880;2023-11-21T06:47:44;1.40;;;1.30;;
12059;SDS011;6091;51.432;6.880;2023-11-21T06:50:11;1.30;;;1.20;;
12059;SDS011;6091;51.432;6.880;2023-11-21T06:52:39;1.30;;;1.20;;
12059;SDS011;6091;51.432;6.880;2023-11-21T06:55:07;1.55;;;1.08;;
12059;SDS011;6091;51.432;6.880;2023-11-21T06:57:35;1.40;;;1.30;;
12059;SDS011;6091;51.432;6.880;2023-11-21T07:00:03;1.35;;;1.25;;
12059;SDS011;6091;51.432;6.880;2023-11-21T07:02:32;1.50;;;1.40;;
12059;SDS011;6091;51.432;6.880;2023-11-21T07:04:59;1.40;;;1.30;;
12059;SDS011;6091;51.432;6.880;2023-11-21T07:07:27;1.52;;;1.42;;
12059;SDS011;6091;51.432;6.880;2023-11-21T07:09:54;1.50;;;1.40;;
12059;SDS011;6091;51.432;6.880;2023-11-21T07:12:21;1.77;;;1.52;;
12059;SDS011;6091;51.432;6.880;2023-11-21T07:14:50;1.60;;;1.40;;
12059;SDS011;6091;51.432;6.880;2023-11-21T07:17:17;2.05;;;1.65;;
12059;SDS011;6091;51.432;6.880;2023-11-21T07:19:44;1.52;;;1.42;;
12059;SDS011;6091;51.432;6.880;2023-11-21T07:22:11;1.80;;;1.70;;
12059;SDS011;6091;51.432;6.880;2023-11-21T07:24:40;1.75;;;1.50;;
12059;SDS011;6091;51.432;6.880;2023-11-21T07:27:07;1.67;;;1.55;;
12059;SDS011;6091;51.432;6.880;2023-11-21T07:29:34;3.17;;;1.75;;
12059;SDS011;6091;51.432;6.880;2023-11-21T07:32:01;4.75;;;2.25;;
12059;SDS011;6091;51.432;6.880;2023-11-21T07:34:29;8.90;;;3.22;;
12059;SDS011;6091;51.432;6.880;2023-11-21T07:36:56;8.18;;;2.63;;
12059;SDS011;6091;51.432;6.880;2023-11-21T07:39:23;9.75;;;2.80;;
12059;SDS011;6091;51.432;6.880;2023-11-21T07:41:50;8.85;;;2.55;;
12059;SDS011;6091;51.432;6.880;2023-11-21T07:44:17;5.00;;;2.55;;
12059;SDS011;6091;51.432;6.880;2023-11-21T07:46:46;4.03;;;2.10;;
12059;SDS011;6091;51.432;6.880;2023-11-21T07:49:16;4.72;;;2.63;;
12059;SDS011;6091;51.432;6.880;2023-11-21T07:51:47;6.20;;;2.42;;
12059;SDS011;6091;51.432;6.880;2023-11-21T07:54:14;3.85;;;2.22;;
12059;SDS011;6091;51.432;6.880;2023-11-21T07:56:42;5.57;;;2.40;;
12059;SDS011;6091;51.432;6.880;2023-11-21T07:59:09;3.92;;;2.25;;
12059;SDS011;6091;51.432;6.880;2023-11-21T08:01:37;7.35;;;2.42;;
12059;SDS011;6091;51.432;6.880;2023-11-21T08:04:06;2.72;;;2.45;;
12059;SDS011;6091;51.432;6.880;2023-11-21T08:06:34;13.65;;;2.80;;
12059;SDS011;6091;51.432;6.880;2023-11-21T08:09:02;6.40;;;2.97;;
12059;SDS011;6091;51.432;6.880;2023-11-21T08:11:29;4.95;;;2.67;;
12059;SDS011;6091;51.432;6.880;2023-11-21T08:13:58;5.75;;;2.58;;
12059;SDS011;6091;51.432;6.880;2023-11-21T08:16:26;4.85;;;2.67;;
12059;SDS011;6091;51.432;6.880;2023-11-21T08:18:54;5.45;;;3.30;;
12059;SDS011;6091;51.432;6.880;2023-11-21T08:21:21;5.00;;;2.90;;
12059;SDS011;6091;51.432;6.880;2023-11-21T08:23:51;6.00;;;3.13;;
12059;SDS011;6091;51.432;6.880;2023-11-21T08:26:21;8.25;;;3.20;;
12059;SDS011;6091;51.432;6.880;2023-11-21T08:28:49;7.63;;;3.00;;
12059;SDS011;6091;51.432;6.880;2023-11-21T08:31:23;8.15;;;3.58;;
12059;SDS011;6091;51.432;6.880;2023-11-21T08:33:53;7.63;;;3.30;;
12059;SDS011;6091;51.432;6.880;2023-11-21T08:36:23;7.85;;;3.53;;
12059;SDS011;6091;51.432;6.880;2023-11-21T08:38:51;8.75;;;4.25;;
12059;SDS011;6091;51.432;6.880;2023-11-21T08:41:18;11.13;;;6.27;;
12059;SDS011;6091;51.432;6.880;2023-11-21T08:43:48;12.60;;;6.28;;
12059;SDS011;6091;51.432;6.880;2023-11-21T08:46:18;12.88;;;5.97;;
12059;SDS011;6091;51.432;6.880;2023-11-21T08:48:46;9.90;;;6.38;;
12059;SDS011;6091;51.432;6.880;2023-11-21T08:51:13;8.75;;;5.90;;
12059;SDS011;6091;51.432;6.880;2023-11-21T08:53:40;11.70;;;8.32;;
12059;SDS011;6091;51.432;6.880;2023-11-21T08:56:07;16.63;;;8.70;;
12059;SDS011;6091;51.432;6.880;2023-11-21T08:58:40;10.90;;;6.68;;
12059;SDS011;6091;51.432;6.880;2023-11-21T09:01:08;12.00;;;6.78;;
12059;SDS011;6091;51.432;6.880;2023-11-21T09:03:35;9.90;;;5.95;;
12059;SDS011;6091;51.432;6.880;2023-11-21T09:06:02;11.88;;;6.57;;
12059;SDS011;6091;51.432;6.880;2023-11-21T09:08:30;12.63;;;7.65;;
12059;SDS011;6091;51.432;6.880;2023-11-21T09:10:58;15.40;;;8.20;;
12059;SDS011;6091;51.432;6.880;2023-11-21T09:13:27;10.50;;;6.88;;
12059;SDS011;6091;51.432;6.880;2023-11-21T09:15:56;10.98;;;6.38;;
12059;SDS011;6091;51.432;6.880;2023-11-21T09:18:23;15.13;;;5.95;;
12059;SDS011;6091;51.432;6.880;2023-11-21T09:20:50;10.20;;;6.00;;
12059;SDS011;6091;51.432;6.880;2023-11-21T09:23:17;10.45;;;6.22;;
12059;SDS011;6091;51.432;6.880;2023-11-21T09:25:44;11.87;;;6.77;;
12059;SDS011;6091;51.432;6.880;2023-11-21T09:28:13;13.20;;;6.50;;
12059;SDS011;6091;51.432;6.880;2023-11-21T09:30:40;15.88;;;6.60;;
12059;SDS011;6091;51.432;6.880;2023-11-21T09:33:08;9.63;;;6.60;;
12059;SDS011;6091;51.432;6.880;2023-11-21T09:35:37;10.73;;;5.75;;
12059;SDS011;6091;51.432;6.880;2023-11-21T09:38:05;11.15;;;6.10;;
12059;SDS011;6091;51.432;6.880;2023-11-21T09:40:37;12.23;;;5.65;;
12059;SDS011;6091;51.432;6.880;2023-11-21T09:43:08;11.55;;;6.18;;
12059;SDS011;6091;51.432;6.880;2023-11-21T09:45:47;14.32;;;6.72;;
12059;SDS011;6091;51.432;6.880;2023-11-21T09:48:23;9.35;;;6.18;;
12059;SDS011;6091;51.432;6.880;2023-11-21T09:50:53;10.02;;;6.65;;
12059;SDS011;6091;51.432;6.880;2023-11-21T09:53:21;10.95;;;7.10;;
12059;SDS011;6091;51.432;6.880;2023-11-21T09:55:51;11.20;;;6.70;;
12059;SDS011;6091;51.432;6.880;2023-11-21T09:58:20;9.55;;;6.50;;
12059;SDS011;6091;51.432;6.880;2023-11-21T10:00:49;11.98;;;6.45;;
12059;SDS011;6091;51.432;6.880;2023-11-21T10:03:20;13.88;;;7.18;;
12059;SDS011;6091;51.432;6.880;2023-11-21T10:05:48;12.13;;;7.10;;
12059;SDS011;6091;51.432;6.880;2023-11-21T10:08:19;12.95;;;7.35;;
12059;SDS011;6091;51.432;6.880;2023-11-21T10:10:51;10.23;;;6.45;;
12059;SDS011;6091;51.432;6.880;2023-11-21T10:13:21;11.20;;;6.75;;
12059;SDS011;6091;51.432;6.880;2023-11-21T10:15:51;13.15;;;8.35;;
12059;SDS011;6091;51.432;6.880;2023-11-21T10:18:19;12.38;;;7.53;;
12059;SDS011;6091;51.432;6.880;2023-11-21T10:20:49;7.70;;;6.75;;
12059;SDS011;6091;51.432;6.880;2023-11-21T10:23:20;8.70;;;6.38;;
12059;SDS011;6091;51.432;6.880;2023-11-21T10:25:50;9.63;;;6.80;;
12059;SDS011;6091;51.432;6.880;2023-11-21T10:28:20;11.65;;;7.18;;
12059;SDS011;6091;51.432;6.880;2023-11-21T10:30:48;12.85;;;5.95;;
12059;SDS011;6091;51.432;6.880;2023-11-21T10:33:15;14.30;;;8.52;;
12059;SDS011;6091;51.432;6.880;2023-11-21T10:35:44;12.65;;;6.82;;
12059;SDS011;6091;51.432;6.880;2023-11-21T10:38:20;11.13;;;7.27;;
12059;SDS011;6091;51.432;6.880;2023-11-21T10:40:49;10.60;;;7.15;;
12059;SDS011;6091;51.432;6.880;2023-11-21T10:43:18;13.65;;;7.95;;
12059;SDS011;6091;51.432;6.880;2023-11-21T10:45:45;14.32;;;7.68;;
12059;SDS011;6091;51.432;6.880;2023-11-21T10:48:13;11.43;;;8.88;;
12059;SDS011;6091;51.432;6.880;2023-11-21T10:50:45;14.15;;;8.68;;
12059;SDS011;6091;51.432;6.880;2023-11-21T10:53:14;13.85;;;8.65;;
12059;SDS011;6091;51.432;6.880;2023-11-21T10:55:44;10.80;;;9.25;;
12059;SDS011;6091;51.432;6.880;2023-11-21T10:58:12;19.88;;;9.20;;
12059;SDS011;6091;51.432;6.880;2023-11-21T11:00:41;11.73;;;8.18;;
12059;SDS011;6091;51.432;6.880;2023-11-21T11:03:11;11.27;;;8.85;;
12059;SDS011;6091;51.432;6.880;2023-11-21T11:05:45;12.18;;;8.82;;
12059;SDS011;6091;51.432;6.880;2023-11-21T11:08:19;12.23;;;8.35;;
12059;SDS011;6091;51.432;6.880;2023-11-21T11:10:54;13.73;;;8.00;;
12059;SDS011;6091;51.432;6.880;2023-11-21T11:13:22;12.68;;;8.02;;
12059;SDS011;6091;51.432;6.880;2023-11-21T11:15:51;12.10;;;8.40;;
12059;SDS011;6091;51.432;6.880;2023-11-21T11:18:29;15.77;;;8.75;;
12059;SDS011;6091;51.432;6.880;2023-11-21T11:20:59;11.52;;;8.30;;
12059;SDS011;6091;51.432;6.880;2023-11-21T11:27:00;10.30;;;8.05;;
12059;SDS011;6091;51.432;6.880;2023-11-21T11:29:59;10.20;;;7.30;;
12059;SDS011;6091;51.432;6.880;2023-11-21T11:39:02;10.25;;;8.05;;
12059;SDS011;6091;51.432;6.880;2023-11-21T11:41:53;14.48;;;9.45;;
12059;SDS011;6091;51.432;6.880;2023-11-21T11:47:14;25.63;;;21.83;;
12059;SDS011;6091;51.432;6.880;2023-11-21T11:52:41;21.80;;;17.40;;
12059;SDS011;6091;51.432;6.880;2023-11-21T11:55:13;16.80;;;12.95;;
12059;SDS011;6091;51.432;6.880;2023-11-21T11:57:51;14.43;;;11.85;;
12059;SDS011;6091;51.432;6.880;2023-11-21T12:02:58;15.30;;;12.23;;
12059;SDS011;6091;51.432;6.880;2023-11-21T12:05:31;13.45;;;10.98;;
12059;SDS011;6091;51.432;6.880;2023-11-21T12:08:02;14.88;;;11.00;;
12059;SDS011;6091;51.432;6.880;2023-11-21T12:10:38;12.52;;;11.27;;
12059;SDS011;6091;51.432;6.880;2023-11-21T12:13:09;16.50;;;13.27;;
12059;SDS011;6091;51.432;6.880;2023-11-21T12:15:38;13.93;;;12.18;;
12059;SDS011;6091;51.432;6.880;2023-11-21T12:18:08;12.10;;;10.23;;
12059;SDS011;6091;51.432;6.880;2023-11-21T12:20:36;13.43;;;10.82;;
12059;SDS011;6091;51.432;6.880;2023-11-21T12:23:07;12.55;;;10.38;;
12059;SDS011;6091;51.432;6.880;2023-11-21T12:25:37;15.45;;;10.57;;
12059;SDS011;6091;51.432;6.880;2023-11-21T12:28:08;12.60;;;10.10;;
12059;SDS011;6091;51.432;6.880;2023-11-21T12:30:36;10.40;;;9.30;;
12059;SDS011;6091;51.432;6.880;2023-11-21T12:33:04;14.73;;;12.95;;
12059;SDS011;6091;51.432;6.880;2023-11-21T12:35:35;12.02;;;10.05;;
12059;SDS011;6091;51.432;6.880;2023-11-21T12:38:03;13.80;;;10.73;;
12059;SDS011;6091;51.432;6.880;2023-11-21T12:40:32;11.35;;;9.85;;
12059;SDS011;6091;51.432;6.880;2023-11-21T12:43:02;11.43;;;9.63;;
12059;SDS011;6091;51.432;6.880;2023-11-21T12:45:31;10.20;;;8.80;;
12059;SDS011;6091;51.432;6.880;2023-11-21T12:48:00;12.25;;;9.65;;
12059;SDS011;6091;51.432;6.880;2023-11-21T12:50:35;12.10;;;9.20;;
12059;SDS011;6091;51.432;6.880;2023-11-21T12:53:08;10.32;;;8.90;;
12059;SDS011;6091;51.432;6.880;2023-11-21T12:55:43;11.48;;;9.48;;
12059;SDS011;6091;51.432;6.880;2023-11-21T12:58:20;11.40;;;9.13;;
12059;SDS011;6091;51.432;6.880;2023-11-21T13:00:49;12.50;;;9.95;;
12059;SDS011;6091;51.432;6.880;2023-11-21T13:03:18;9.48;;;8.48;;
12059;SDS011;6091;51.432;6.880;2023-11-21T13:05:50;11.20;;;9.18;;
12059;SDS011;6091;51.432;6.880;2023-11-21T13:08:21;10.13;;;8.43;;
12059;SDS011;6091;51.432;6.880;2023-11-21T13:10:54;9.50;;;8.43;;
12059;SDS011;6091;51.432;6.880;2023-11-21T13:13:24;8.35;;;7.45;;
12059;SDS011;6091;51.432;6.880;2023-11-21T13:16:02;9.25;;;8.23;;
12059;SDS011;6091;51.432;6.880;2023-11-21T13:18:34;8.80;;;7.07;;
12059;SDS011;6091;51.432;6.880;2023-11-21T13:21:03;8.15;;;7.32;;
12059;SDS011;6091;51.432;6.880;2023-11-21T13:23:42;8.27;;;7.03;;
12059;SDS011;6091;51.432;6.880;2023-11-21T13:26:12;9.43;;;7.57;;
12059;SDS011;6091;51.432;6.880;2023-11-21T13:28:41;12.35;;;9.18;;
12059;SDS011;6091;51.432;6.880;2023-11-21T13:31:13;9.00;;;7.22;;
12059;SDS011;6091;51.432;6.880;2023-11-21T13:33:55;8.27;;;7.43;;
12059;SDS011;6091;51.432;6.880;2023-11-21T13:36:25;7.60;;;6.80;;
12059;SDS011;6091;51.432;6.880;2023-11-21T13:38:57;8.85;;;6.93;;
12059;SDS011;6091;51.432;6.880;2023-11-21T13:41:25;10.50;;;6.80;;
12059;SDS011;6091;51.432;6.880;2023-11-21T13:43:58;9.73;;;8.40;;
12059;SDS011;6091;51.432;6.880;2023-11-21T13:47:04;8.35;;;6.85;;
12059;SDS011;6091;51.432;6.880;2023-11-21T13:49:32;7.57;;;6.65;;
12059;SDS011;6091;51.432;6.880;2023-11-21T13:52:07;8.40;;;6.45;;
12059;SDS011;6091;51.432;6.880;2023-11-21T13:54:38;7.35;;;6.57;;
12059;SDS011;6091;51.432;6.880;2023-11-21T13:57:05;7.60;;;6.38;;
12059;SDS011;6091;51.432;6.880;2023-11-21T13:59:32;8.65;;;6.35;;
12059;SDS011;6091;51.432;6.880;2023-11-21T14:02:00;6.38;;;5.70;;
12059;SDS011;6091;51.432;6.880;2023-11-21T14:04:39;10.20;;;6.47;;
12059;SDS011;6091;51.432;6.880;2023-11-21T14:07:26;7.22;;;6.40;;
12059;SDS011;6091;51.432;6.880;2023-11-21T14:10:03;9.98;;;5.65;;
12059;SDS011;6091;51.432;6.880;2023-11-21T14:12:34;8.70;;;6.53;;
12059;SDS011;6091;51.432;6.880;2023-11-21T14:15:05;6.80;;;5.50;;
12059;SDS011;6091;51.432;6.880;2023-11-21T14:17:36;8.25;;;5.93;;
12059;SDS011;6091;51.432;6.880;2023-11-21T14:20:07;6.50;;;5.90;;
12059;SDS011;6091;51.432;6.880;2023-11-21T14:22:43;6.43;;;5.47;;
12059;SDS011;6091;51.432;6.880;2023-11-21T14:25:10;6.45;;;5.80;;
12059;SDS011;6091;51.432;6.880;2023-11-21T14:27:38;6.70;;;5.88;;
12059;SDS011;6091;51.432;6.880;2023-11-21T14:30:06;5.53;;;5.03;;
12059;SDS011;6091;51.432;6.880;2023-11-21T14:32:34;6.38;;;5.22;;
12059;SDS011;6091;51.432;6.880;2023-11-21T14:35:05;7.40;;;5.13;;
12059;SDS011;6091;51.432;6.880;2023-11-21T14:37:35;6.25;;;4.85;;
12059;SDS011;6091;51.432;6.880;2023-11-21T14:40:03;14.93;;;6.00;;
12059;SDS011;6091;51.432;6.880;2023-11-21T14:42:33;10.32;;;5.15;;
12059;SDS011;6091;51.432;6.880;2023-11-21T14:45:05;14.10;;;6.97;;
12059;SDS011;6091;51.432;6.880;2023-11-21T14:47:34;10.75;;;5.10;;
12059;SDS011;6091;51.432;6.880;2023-11-21T14:50:05;8.98;;;5.25;;
12059;SDS011;6091;51.432;6.880;2023-11-21T14:52:53;6.20;;;4.68;;
12059;SDS011;6091;51.432;6.880;2023-11-21T14:55:26;4.97;;;4.20;;
12059;SDS011;6091;51.432;6.880;2023-11-21T14:57:58;5.97;;;4.25;;
12059;SDS011;6091;51.432;6.880;2023-11-21T15:00:30;5.75;;;4.40;;
12059;SDS011;6091;51.432;6.880;2023-11-21T15:03:01;6.07;;;4.78;;
12059;SDS011;6091;51.432;6.880;2023-11-21T15:05:30;6.18;;;4.68;;
12059;SDS011;6091;51.432;6.880;2023-11-21T15:07:58;7.20;;;4.65;;
12059;SDS011;6091;51.432;6.880;2023-11-21T15:10:40;6.53;;;4.50;;
12059;SDS011;6091;51.432;6.880;2023-11-21T15:13:19;7.35;;;4.43;;
12059;SDS011;6091;51.432;6.880;2023-11-21T15:15:48;6.85;;;4.97;;
12059;SDS011;6091;51.432;6.880;2023-11-21T15:18:18;8.60;;;4.85;;
12059;SDS011;6091;51.432;6.880;2023-11-21T15:20:46;6.97;;;4.28;;
12059;SDS011;6091;51.432;6.880;2023-11-21T15:23:14;6.63;;;3.90;;
12059;SDS011;6091;51.432;6.880;2023-11-21T15:25:45;6.40;;;4.07;;
12059;SDS011;6091;51.432;6.880;2023-11-21T15:28:13;5.95;;;3.47;;